Time;durP1;ratioP1;P1;durP2;ratioP2;P2;SDS_P1;SDS_P2;PMS_P1;PMS_P2;Temp;Humidity;BMP_temperature;BMP_pressure;BME280_temperature;BME280_humidity;BME280_pressure;Samples;Min_cycle;Max_cycle;Signal;HPM_P1;HPM_P2
2023/03/06 00:00:40;;;;;;;24.23;15.83;;;7.20;99.90;;;;;;5093125;28;20173;-84
2023/03/06 00:03:06;;;;;;;20.02;14.48;;;7.10;99.90;;;;;;5092514;28;20567;-84
2023/03/06 00:05:32;;;;;;;22.33;15.48;;;7.10;99.90;;;;;;5093853;28;20173;-84
2023/03/06 00:07:57;;;;;;;24.23;14.13;;;7.10;99.90;;;;;;5092761;28;20295;-84
2023/03/06 00:10:27;;;;;;;18.93;12.17;;;7.10;99.90;;;;;;5092569;28;20613;-83
2023/03/06 00:13:03;;;;;;;20.85;13.43;;;7.00;99.90;;;;;;5092456;28;20239;-84
2023/03/06 00:15:29;;;;;;;16.90;11.88;;;7.00;99.90;;;;;;5092556;28;20180;-84
2023/03/06 00:17:56;;;;;;;21.30;13.47;;;7.00;99.90;;;;;;5092784;28;20196;-83
2023/03/06 00:20:22;;;;;;;22.77;13.82;;;7.00;99.90;;;;;;5092468;28;20409;-84
2023/03/06 00:22:49;;;;;;;18.52;12.35;;;6.80;99.90;;;;;;5092535;28;20751;-84
2023/03/06 00:25:18;;;;;;;18.63;11.32;;;6.70;99.90;;;;;;5093760;28;20217;-82
2023/03/06 00:27:44;;;;;;;22.25;13.05;;;6.60;99.90;;;;;;5092555;28;20223;-83
2023/03/06 00:30:13;;;;;;;24.55;15.00;;;6.60;99.90;;;;;;5093836;28;20689;-83
2023/03/06 00:32:39;;;;;;;24.00;13.57;;;6.70;99.90;;;;;;5093861;28;20199;-82
2023/03/06 00:35:05;;;;;;;20.20;13.10;;;6.80;99.90;;;;;;5093795;28;20672;-83
2023/03/06 00:37:31;;;;;;;19.73;13.35;;;6.90;99.90;;;;;;5092635;28;20203;-84
2023/03/06 00:39:57;;;;;;;22.53;14.90;;;6.90;99.90;;;;;;5093563;28;20180;-84
2023/03/06 00:42:22;;;;;;;19.40;12.60;;;6.80;99.90;;;;;;5093955;28;20251;-83
2023/03/06 00:44:48;;;;;;;22.10;15.13;;;6.80;99.90;;;;;;5093606;28;20469;-82
2023/03/06 00:47:16;;;;;;;20.70;14.03;;;6.80;99.90;;;;;;5094009;28;20554;-84
2023/03/06 00:49:45;;;;;;;23.00;14.40;;;6.80;99.90;;;;;;5093478;28;20177;-84
2023/03/06 00:52:12;;;;;;;19.52;13.00;;;6.80;99.90;;;;;;5093743;28;20605;-84
2023/03/06 00:54:39;;;;;;;19.58;13.40;;;6.70;99.90;;;;;;5092111;28;20181;-84
2023/03/06 00:57:05;;;;;;;22.13;13.63;;;6.60;99.90;;;;;;5092897;28;20699;-84
2023/03/06 00:59:30;;;;;;;20.70;13.00;;;6.60;99.90;;;;;;5096106;28;20180;-84
2023/03/06 01:01:56;;;;;;;18.00;12.77;;;6.60;99.90;;;;;;5097227;28;20268;-83
2023/03/06 01:04:22;;;;;;;19.10;12.20;;;6.60;99.90;;;;;;5097275;28;20664;-82
2023/03/06 01:06:48;;;;;;;19.83;11.90;;;6.60;99.90;;;;;;5095972;28;20176;-84
2023/03/06 01:09:14;;;;;;;20.38;13.15;;;6.50;99.90;;;;;;5097218;28;20417;-83
2023/03/06 01:11:44;;;;;;;17.02;12.82;;;6.50;99.90;;;;;;5095839;28;20173;-84
2023/03/06 01:14:10;;;;;;;22.45;14.25;;;6.60;99.90;;;;;;5096956;28;20252;-82
2023/03/06 01:16:35;;;;;;;25.87;13.23;;;6.60;99.90;;;;;;5097055;28;20237;-84
2023/03/06 01:19:02;;;;;;;20.33;13.20;;;6.60;99.90;;;;;;5096968;28;20195;-84
2023/03/06 01:21:27;;;;;;;22.70;13.15;;;6.60;99.90;;;;;;5097140;28;20208;-83
2023/03/06 01:23:53;;;;;;;17.60;12.83;;;6.60;99.90;;;;;;5096923;28;20243;-84
2023/03/06 01:26:19;;;;;;;20.33;13.33;;;6.50;99.90;;;;;;5096984;28;20183;-84
2023/03/06 01:28:45;;;;;;;16.20;12.07;;;6.50;99.90;;;;;;5095485;28;20745;-83
2023/03/06 01:31:10;;;;;;;21.47;13.00;;;6.50;99.90;;;;;;5096980;28;20931;-84
2023/03/06 01:33:37;;;;;;;18.57;12.83;;;6.40;99.90;;;;;;5095961;28;20204;-83
2023/03/06 01:36:07;;;;;;;21.20;12.40;;;6.40;99.90;;;;;;5096901;28;20387;-83
2023/03/06 01:38:34;;;;;;;18.50;11.65;;;6.40;99.90;;;;;;5096581;28;20212;-83
2023/03/06 01:41:02;;;;;;;26.88;13.60;;;6.40;99.90;;;;;;5096504;28;20177;-83
2023/03/06 01:43:30;;;;;;;21.35;12.30;;;6.40;99.90;;;;;;5095188;28;20278;-84
2023/03/06 01:46:27;;;;;;;18.08;12.50;;;6.50;99.90;;;;;;5095215;28;20221;-83
2023/03/06 01:49:30;;;;;;;22.48;12.85;;;6.50;99.90;;;;;;5095042;28;20218;-83
2023/03/06 01:52:00;;;;;;;18.98;12.82;;;6.50;99.90;;;;;;5088038;28;20211;-85
2023/03/06 01:54:40;;;;;;;16.10;11.25;;;6.50;99.90;;;;;;5096322;28;20272;-84
2023/03/06 01:57:12;;;;;;;24.75;13.60;;;6.50;99.90;;;;;;5096713;28;20250;-84
2023/03/06 01:59:41;;;;;;;17.38;12.35;;;6.40;99.90;;;;;;5096163;28;20188;-83
2023/03/06 02:02:09;;;;;;;17.73;11.60;;;6.40;99.90;;;;;;5096470;28;20275;-83
2023/03/06 02:04:38;;;;;;;18.58;12.52;;;6.40;99.90;;;;;;5096018;28;20188;-84
2023/03/06 02:07:05;;;;;;;18.55;12.63;;;6.40;99.90;;;;;;5096428;28;20188;-83
2023/03/06 02:09:33;;;;;;;23.40;12.65;;;6.40;99.90;;;;;;5095818;28;20649;-84
2023/03/06 02:12:06;;;;;;;19.02;12.23;;;6.50;99.90;;;;;;5094725;28;20200;-84
2023/03/06 02:14:32;;;;;;;22.70;14.30;;;6.50;99.90;;;;;;5094778;28;20282;-83
2023/03/06 02:16:58;;;;;;;21.70;13.50;;;6.40;99.90;;;;;;5095755;28;20196;-85
2023/03/06 02:19:26;;;;;;;23.80;14.90;;;6.50;99.90;;;;;;5096003;28;20176;-82
2023/03/06 02:21:52;;;;;;;22.23;14.93;;;6.50;99.90;;;;;;5096005;28;20255;-84
2023/03/06 02:24:49;;;;;;;19.30;13.73;;;6.50;99.90;;;;;;5094409;28;20806;-83
2023/03/06 02:27:16;;;;;;;20.30;11.70;;;6.50;99.90;;;;;;5094233;28;20693;-84
2023/03/06 02:29:42;;;;;;;20.60;11.88;;;6.50;99.90;;;;;;5095527;28;20259;-84
2023/03/06 02:32:09;;;;;;;20.73;11.60;;;6.40;99.90;;;;;;5094183;28;20267;-84
2023/03/06 02:34:37;;;;;;;19.38;12.20;;;6.50;99.90;;;;;;5095532;28;20164;-84
2023/03/06 02:37:08;;;;;;;23.08;13.55;;;6.40;99.90;;;;;;5095696;28;20334;-84
2023/03/06 02:39:40;;;;;;;19.02;12.43;;;6.50;99.90;;;;;;5095468;28;20165;-83
2023/03/06 02:42:06;;;;;;;23.33;12.60;;;6.50;99.90;;;;;;5095729;28;20196;-84
2023/03/06 02:44:33;;;;;;;17.67;12.75;;;6.50;99.90;;;;;;5094079;28;20546;-83
2023/03/06 02:46:59;;;;;;;22.33;12.90;;;6.50;99.90;;;;;;5094053;28;20200;-84
2023/03/06 02:49:25;;;;;;;20.80;12.87;;;6.60;99.90;;;;;;5095731;28;20265;-82
2023/03/06 02:51:51;;;;;;;17.60;12.33;;;6.60;99.90;;;;;;5095305;28;20176;-84
2023/03/06 02:54:17;;;;;;;21.87;14.03;;;6.50;99.90;;;;;;5093921;28;20436;-83
2023/03/06 02:56:43;;;;;;;22.20;14.77;;;6.60;99.90;;;;;;5093887;28;20260;-84
2023/03/06 02:59:10;;;;;;;22.88;13.65;;;6.60;99.90;;;;;;5095007;28;20405;-84
2023/03/06 03:01:35;;;;;;;18.42;12.55;;;6.70;99.90;;;;;;5093675;28;20184;-84
2023/03/06 03:04:01;;;;;;;21.40;13.77;;;6.70;99.90;;;;;;5094866;28;20212;-83
2023/03/06 03:06:27;;;;;;;22.70;14.10;;;6.70;99.90;;;;;;5095155;28;20184;-83
2023/03/06 03:08:52;;;;;;;18.80;12.23;;;6.70;99.90;;;;;;5094802;28;20192;-84
2023/03/06 03:11:18;;;;;;;19.13;13.33;;;6.70;99.90;;;;;;5093703;28;20668;-84
2023/03/06 03:13:44;;;;;;;18.40;13.40;;;6.60;99.90;;;;;;5093368;28;20236;-84
2023/03/06 03:16:14;;;;;;;22.07;14.93;;;6.60;99.90;;;;;;5093575;28;20215;-84
2023/03/06 03:18:40;;;;;;;20.52;14.18;;;6.50;99.90;;;;;;5094657;28;20228;-83
2023/03/06 03:21:07;;;;;;;20.40;14.40;;;6.40;99.90;;;;;;5094090;28;20630;-84
2023/03/06 03:23:33;;;;;;;23.70;13.20;;;6.30;99.90;;;;;;5093296;28;20212;-83
2023/03/06 03:26:07;;;;;;;20.70;13.70;;;6.30;99.90;;;;;;5095442;28;20176;-85
2023/03/06 03:28:33;;;;;;;22.98;16.60;;;6.20;99.90;;;;;;5094362;28;20258;-84
2023/03/06 03:31:02;;;;;;;19.00;13.73;;;6.30;99.90;;;;;;5094723;28;20618;-82
2023/03/06 03:33:29;;;;;;;22.67;15.38;;;6.40;99.90;;;;;;5094383;28;20286;-84
2023/03/06 03:36:02;;;;;;;26.67;16.55;;;6.40;99.90;;;;;;5092994;28;20173;-85
2023/03/06 03:38:28;;;;;;;28.08;15.63;;;6.30;99.90;;;;;;5093124;28;20624;-84
2023/03/06 03:40:54;;;;;;;29.35;15.93;;;6.40;99.90;;;;;;5094300;28;20177;-84
2023/03/06 03:43:20;;;;;;;23.25;16.90;;;6.30;99.90;;;;;;5092920;28;20208;-84
2023/03/06 03:45:46;;;;;;;22.17;15.35;;;6.20;99.90;;;;;;5094199;28;20560;-83
2023/03/06 03:48:12;;;;;;;20.43;15.97;;;6.10;99.90;;;;;;5094261;28;20199;-85
2023/03/06 03:50:37;;;;;;;23.67;15.10;;;6.00;99.90;;;;;;5092890;28;20180;-83
2023/03/06 03:53:03;;;;;;;26.73;17.50;;;6.00;99.90;;;;;;5092962;28;20449;-84
2023/03/06 03:55:30;;;;;;;29.48;17.35;;;5.90;99.90;;;;;;5094065;28;20172;-83
2023/03/06 03:57:56;;;;;;;27.10;17.05;;;6.00;99.90;;;;;;5092922;28;20211;-84
2023/03/06 04:00:22;;;;;;;29.00;16.00;;;6.10;99.90;;;;;;5092797;28;20649;-84
2023/03/06 04:02:47;;;;;;;25.83;15.67;;;6.20;99.90;;;;;;5094298;28;20973;-84
2023/03/06 04:05:14;;;;;;;29.40;17.17;;;6.20;99.90;;;;;;5093958;28;20641;-84
2023/03/06 04:07:41;;;;;;;23.42;15.80;;;6.10;99.90;;;;;;5092536;28;20808;-85
2023/03/06 04:10:09;;;;;;;24.42;15.98;;;6.10;99.90;;;;;;5093453;28;20183;-84
2023/03/06 04:12:35;;;;;;;26.30;17.05;;;6.00;99.90;;;;;;5094057;28;20220;-84
2023/03/06 04:15:01;;;;;;;25.08;16.70;;;6.00;99.90;;;;;;5092571;28;20179;-83
2023/03/06 04:17:27;;;;;;;27.87;17.47;;;6.00;99.90;;;;;;5092379;28;20295;-83
2023/03/06 04:19:53;;;;;;;22.50;15.00;;;6.10;99.90;;;;;;5093844;28;20940;-84
2023/03/06 04:22:19;;;;;;;27.40;18.90;;;6.10;99.90;;;;;;5092412;28;20440;-84
2023/03/06 04:24:47;;;;;;;30.23;20.10;;;6.10;99.90;;;;;;5093770;28;20203;-82
2023/03/06 04:27:13;;;;;;;29.67;18.98;;;6.10;99.90;;;;;;5093969;28;20200;-84
2023/03/06 04:29:39;;;;;;;26.10;17.23;;;6.00;99.90;;;;;;5093668;28;20630;-83
2023/03/06 04:32:05;;;;;;;24.03;17.50;;;5.90;99.90;;;;;;5096586;28;20659;-83
2023/03/06 04:34:30;;;;;;;23.13;17.13;;;5.80;99.90;;;;;;5096615;28;20172;-83
2023/03/06 04:36:56;;;;;;;24.80;17.10;;;5.70;99.90;;;;;;5097632;28;20429;-82
2023/03/06 04:39:21;;;;;;;25.37;16.80;;;5.40;99.90;;;;;;5097781;28;20645;-83
2023/03/06 04:41:47;;;;;;;25.10;17.20;;;5.30;99.90;;;;;;5097888;28;20263;-84
2023/03/06 04:44:13;;;;;;;26.30;15.60;;;5.40;99.90;;;;;;5096450;28;20239;-83
2023/03/06 04:46:38;;;;;;;25.67;16.10;;;5.50;99.90;;;;;;5096347;28;20208;-84
2023/03/06 04:49:04;;;;;;;24.47;15.73;;;5.50;99.90;;;;;;5097669;28;20173;-84
2023/03/06 04:51:30;;;;;;;30.73;19.20;;;5.60;99.90;;;;;;5097722;28;20195;-84
2023/03/06 04:53:56;;;;;;;32.27;20.60;;;5.60;99.90;;;;;;5096429;28;20200;-84
2023/03/06 04:56:22;;;;;;;31.27;19.17;;;5.50;99.90;;;;;;5097001;28;20428;-87
2023/03/06 04:58:47;;;;;;;26.33;17.77;;;5.60;99.90;;;;;;5099845;28;20664;-83
2023/03/06 05:01:13;;;;;;;30.70;16.53;;;5.60;99.90;;;;;;5096323;28;20417;-82
2023/03/06 05:03:39;;;;;;;29.23;14.67;;;5.60;99.90;;;;;;5097193;28;20460;-86
2023/03/06 05:06:05;;;;;;;23.70;16.87;;;5.50;99.90;;;;;;5096023;28;20183;-86
2023/03/06 05:08:31;;;;;;;23.20;15.20;;;5.50;99.90;;;;;;5097176;28;20226;-86
2023/03/06 05:10:59;;;;;;;26.50;16.83;;;5.50;99.90;;;;;;5097265;28;20396;-83
2023/03/06 05:13:25;;;;;;;24.92;17.73;;;5.60;99.90;;;;;;5097035;28;20327;-82
2023/03/06 05:15:51;;;;;;;45.33;31.75;;;5.60;99.90;;;;;;5095764;28;20172;-86
2023/03/06 05:18:17;;;;;;;49.17;32.70;;;5.70;99.90;;;;;;5097044;28;20570;-85
2023/03/06 05:20:43;;;;;;;41.85;29.02;;;5.90;99.90;;;;;;5096879;28;20435;-86
2023/03/06 05:23:09;;;;;;;38.27;26.20;;;5.90;99.90;;;;;;5095564;28;20220;-86
2023/03/06 05:25:38;;;;;;;35.87;23.57;;;5.80;99.90;;;;;;5096847;28;21040;-82
2023/03/06 05:28:04;;;;;;;38.55;23.27;;;5.90;99.90;;;;;;5095073;28;20859;-87
2023/03/06 05:30:30;;;;;;;33.22;22.60;;;5.80;99.90;;;;;;5095438;28;20181;-85
2023/03/06 05:32:55;;;;;;;29.43;19.73;;;5.80;99.90;;;;;;5095399;28;20234;-82
2023/03/06 05:35:22;;;;;;;29.77;18.43;;;5.70;99.90;;;;;;5093648;28;20279;-85
2023/03/06 05:37:48;;;;;;;28.65;20.08;;;5.70;99.90;;;;;;5095357;28;20271;-83
2023/03/06 05:40:15;;;;;;;27.98;18.85;;;5.70;99.90;;;;;;5094684;28;20699;-83
2023/03/06 05:42:41;;;;;;;32.70;19.88;;;5.60;99.90;;;;;;5093172;28;20212;-87
2023/03/06 05:45:08;;;;;;;27.70;19.50;;;5.70;99.90;;;;;;5092154;28;20199;-82
2023/03/06 05:47:33;;;;;;;26.98;19.77;;;5.70;99.90;;;;;;5089862;28;20200;-82
2023/03/06 05:49:59;;;;;;;33.17;20.10;;;5.70;99.90;;;;;;5095467;28;20188;-83
2023/03/06 05:52:25;;;;;;;30.53;21.10;;;5.70;99.90;;;;;;5096723;28;20294;-82
2023/03/06 05:54:52;;;;;;;24.37;17.30;;;5.70;99.90;;;;;;5095326;28;20653;-87
2023/03/06 05:57:19;;;;;;;29.20;18.83;;;5.80;99.90;;;;;;5096414;28;20547;-87
2023/03/06 05:59:45;;;;;;;26.65;17.30;;;5.90;99.90;;;;;;5096413;28;20656;-86
2023/03/06 06:02:11;;;;;;;28.87;18.67;;;5.80;99.90;;;;;;5094203;28;20204;-87
2023/03/06 06:04:37;;;;;;;27.00;18.50;;;5.90;99.90;;;;;;5094074;28;20424;-86
2023/03/06 06:07:04;;;;;;;27.70;18.53;;;5.90;99.90;;;;;;5094860;28;20204;-82
2023/03/06 06:09:30;;;;;;;25.52;17.38;;;5.90;99.90;;;;;;5095481;28;20169;-86
2023/03/06 06:11:59;;;;;;;29.50;18.13;;;5.90;99.90;;;;;;5088400;28;20209;-82
2023/03/06 06:14:25;;;;;;;25.50;17.65;;;5.90;99.90;;;;;;5082180;28;20468;-87
2023/03/06 06:16:51;;;;;;;34.28;19.73;;;5.90;99.90;;;;;;5090347;28;20676;-87
2023/03/06 06:19:19;;;;;;;39.23;21.97;;;5.90;99.90;;;;;;5094367;28;20283;-84
2023/03/06 06:21:47;;;;;;;38.53;21.35;;;6.00;99.90;;;;;;5094629;28;20180;-82
2023/03/06 06:24:15;;;;;;;33.22;21.08;;;6.00;99.90;;;;;;5094101;28;20207;-82
2023/03/06 06:26:41;;;;;;;30.50;19.45;;;6.00;99.90;;;;;;5094707;28;20177;-86
2023/03/06 06:29:08;;;;;;;29.77;17.85;;;6.00;99.90;;;;;;5090009;28;20193;-86
2023/03/06 06:31:35;;;;;;;34.60;20.15;;;6.00;99.90;;;;;;5095568;28;20176;-87
2023/03/06 06:34:02;;;;;;;30.48;20.42;;;6.10;99.90;;;;;;5089387;28;20213;-83
2023/03/06 06:36:28;;;;;;;33.30;20.23;;;6.10;99.90;;;;;;5087563;28;20195;-85
2023/03/06 06:38:54;;;;;;;29.67;20.23;;;5.90;99.90;;;;;;5089985;28;20200;-84
2023/03/06 06:41:19;;;;;;;30.93;18.97;;;5.90;99.90;;;;;;5086066;28;20192;-83
2023/03/06 06:43:45;;;;;;;30.73;17.77;;;5.90;99.90;;;;;;5087125;28;20219;-83
2023/03/06 06:46:10;;;;;;;36.07;21.93;;;6.00;99.90;;;;;;5092130;28;20191;-82
2023/03/06 06:48:36;;;;;;;32.67;20.20;;;6.00;99.90;;;;;;5082817;28;20693;-83
2023/03/06 06:51:03;;;;;;;25.90;16.63;;;6.00;99.90;;;;;;5086209;28;20210;-82
2023/03/06 06:53:29;;;;;;;24.83;17.25;;;5.90;99.90;;;;;;5086340;28;20204;-85
2023/03/06 06:55:57;;;;;;;28.03;17.10;;;6.00;99.90;;;;;;5086250;28;20200;-85
2023/03/06 06:58:23;;;;;;;22.65;16.17;;;6.10;99.90;;;;;;5083993;28;20465;-83
2023/03/06 07:00:48;;;;;;;24.37;16.43;;;6.20;99.90;;;;;;5089404;28;20191;-83
2023/03/06 07:03:17;;;;;;;29.20;17.10;;;6.20;99.90;;;;;;5085334;28;20596;-85
2023/03/06 07:05:43;;;;;;;24.98;16.05;;;6.30;99.90;;;;;;5076005;28;20651;-85
2023/03/06 07:08:09;;;;;;;23.97;16.13;;;6.30;99.90;;;;;;5076960;28;20209;-83
2023/03/06 07:10:38;;;;;;;22.85;16.40;;;6.40;99.90;;;;;;5089893;28;20208;-84
2023/03/06 07:13:03;;;;;;;25.63;17.13;;;6.40;99.90;;;;;;5090755;28;20298;-84
2023/03/06 07:15:29;;;;;;;24.10;15.30;;;6.40;99.90;;;;;;5091247;28;20180;-84
2023/03/06 07:17:55;;;;;;;21.20;14.33;;;6.40;99.90;;;;;;5090108;28;20419;-85
2023/03/06 07:20:21;;;;;;;19.25;13.20;;;6.50;99.90;;;;;;5089838;28;20195;-84
2023/03/06 07:22:48;;;;;;;26.63;16.70;;;6.50;99.90;;;;;;5090247;28;20802;-84
2023/03/06 07:25:14;;;;;;;21.75;15.02;;;6.50;99.90;;;;;;5090027;28;20401;-85
2023/03/06 07:27:39;;;;;;;22.53;13.10;;;6.60;99.90;;;;;;5088613;28;20558;-83
2023/03/06 07:30:06;;;;;;;29.83;15.20;;;6.60;99.90;;;;;;5095524;28;20640;-86
2023/03/06 07:32:32;;;;;;;18.20;11.85;;;6.60;99.90;;;;;;5093422;28;20208;-84
2023/03/06 07:34:57;;;;;;;18.63;12.03;;;6.60;99.90;;;;;;5089716;28;20641;-83
2023/03/06 07:37:23;;;;;;;17.87;12.77;;;6.70;99.90;;;;;;5085088;28;20203;-85
2023/03/06 07:39:49;;;;;;;28.20;18.03;;;6.70;99.90;;;;;;5090062;28;20433;-84
2023/03/06 07:42:15;;;;;;;25.43;17.60;;;6.80;99.90;;;;;;5092782;28;20223;-85
2023/03/06 07:44:41;;;;;;;19.83;12.68;;;6.70;99.90;;;;;;5090222;28;20199;-85
2023/03/06 07:47:07;;;;;;;24.20;17.02;;;6.80;99.90;;;;;;5082394;28;20209;-84
2023/03/06 07:49:33;;;;;;;17.40;12.60;;;6.80;99.90;;;;;;5085544;28;20195;-82
2023/03/06 07:52:00;;;;;;;16.77;12.30;;;6.90;99.90;;;;;;5088307;28;20980;-83
2023/03/06 07:54:26;;;;;;;19.77;12.32;;;7.10;99.90;;;;;;5087412;28;20295;-85
2023/03/06 07:56:52;;;;;;;18.50;12.50;;;7.10;99.90;;;;;;5084447;28;20274;-85
2023/03/06 07:59:17;;;;;;;19.73;13.55;;;7.30;99.90;;;;;;5087378;28;20424;-82
2023/03/06 08:01:43;;;;;;;23.07;14.93;;;7.40;99.90;;;;;;5083963;28;20176;-85
2023/03/06 08:04:09;;;;;;;17.87;12.20;;;7.60;99.90;;;;;;5087276;28;20208;-85
2023/03/06 08:06:34;;;;;;;21.20;13.20;;;7.60;99.90;;;;;;5085791;28;20179;-83
2023/03/06 08:09:00;;;;;;;19.43;13.60;;;7.80;99.90;;;;;;5089375;28;20177;-83
2023/03/06 08:11:30;;;;;;;18.47;12.80;;;7.90;99.90;;;;;;5089844;28;20262;-84
2023/03/06 08:13:57;;;;;;;26.40;16.33;;;7.90;99.90;;;;;;5088576;28;20830;-83
2023/03/06 08:16:25;;;;;;;21.88;14.50;;;8.00;99.90;;;;;;5087641;28;20204;-83
2023/03/06 08:18:51;;;;;;;16.15;12.07;;;8.20;99.90;;;;;;5087064;28;20207;-86
2023/03/06 08:21:20;;;;;;;16.30;11.30;;;8.50;99.90;;;;;;5085650;28;20721;-85
2023/03/06 08:23:47;;;;;;;18.17;11.50;;;8.90;99.90;;;;;;5069980;28;20522;-82
2023/03/06 08:26:16;;;;;;;18.73;14.18;;;9.10;99.90;;;;;;5084133;28;20181;-85
2023/03/06 08:28:42;;;;;;;17.92;12.32;;;9.30;99.90;;;;;;5090310;28;20543;-83
2023/03/06 08:31:21;;;;;;;17.73;13.10;;;9.80;99.90;;;;;;5090260;28;20187;-86
2023/03/06 08:33:47;;;;;;;17.52;13.23;;;10.70;99.90;;;;;;5081812;28;20231;-84
2023/03/06 08:36:13;;;;;;;20.03;12.67;;;11.80;99.90;;;;;;5077108;28;20590;-85
2023/03/06 08:38:39;;;;;;;18.90;13.10;;;12.50;99.90;;;;;;5090635;28;20218;-85
2023/03/06 08:41:04;;;;;;;19.50;13.50;;;12.90;99.90;;;;;;5091865;28;20215;-84
2023/03/06 08:43:30;;;;;;;18.70;14.23;;;12.90;99.60;;;;;;5089301;28;20270;-85
2023/03/06 08:45:57;;;;;;;21.40;13.70;;;12.50;98.30;;;;;;5087719;28;20653;-86
2023/03/06 08:48:24;;;;;;;19.58;13.63;;;12.00;98.50;;;;;;5088290;28;20200;-83
2023/03/06 08:50:50;;;;;;;20.13;14.15;;;11.70;99.50;;;;;;5081047;28;20230;-86
2023/03/06 08:53:16;;;;;;;18.20;13.37;;;11.50;99.90;;;;;;5088933;28;20208;-84
2023/03/06 08:55:42;;;;;;;18.95;14.35;;;11.50;99.60;;;;;;5077445;28;20425;-84
2023/03/06 08:58:08;;;;;;;16.47;13.27;;;11.40;99.60;;;;;;5083309;28;20200;-86
2023/03/06 09:00:35;;;;;;;20.48;13.75;;;11.30;99.40;;;;;;5083926;28;20665;-83
2023/03/06 09:03:01;;;;;;;17.13;11.85;;;11.10;99.10;;;;;;5086630;28;20267;-85
2023/03/06 09:05:27;;;;;;;23.70;14.52;;;11.00;99.70;;;;;;5085975;28;20522;-84
2023/03/06 09:07:52;;;;;;;20.00;13.67;;;10.80;99.30;;;;;;5085525;28;20239;-83
2023/03/06 09:10:23;;;;;;;23.27;15.73;;;10.60;99.40;;;;;;5088568;28;20263;-83
2023/03/06 09:12:49;;;;;;;19.67;13.68;;;10.30;99.80;;;;;;5080269;28;20695;-85
2023/03/06 09:15:18;;;;;;;25.77;17.52;;;10.00;99.90;;;;;;5085084;28;20184;-83
2023/03/06 09:17:43;;;;;;;24.05;17.05;;;9.90;99.90;;;;;;5080277;28;20204;-85
2023/03/06 09:20:11;;;;;;;20.37;12.47;;;9.80;99.90;;;;;;5088020;28;20275;-82
2023/03/06 09:22:37;;;;;;;23.85;13.30;;;9.60;99.90;;;;;;5089555;28;20215;-84
2023/03/06 09:25:04;;;;;;;27.20;16.77;;;9.50;99.90;;;;;;5086689;28;20185;-83
2023/03/06 09:27:30;;;;;;;22.13;14.85;;;9.50;99.90;;;;;;5105013;28;20204;-83
2023/03/06 09:29:56;;;;;;;17.20;12.93;;;9.50;99.90;;;;;;5086714;28;20180;-84
2023/03/06 09:32:23;;;;;;;22.58;14.82;;;9.50;99.90;;;;;;5088301;28;20329;-82
2023/03/06 09:34:49;;;;;;;22.25;15.13;;;9.50;99.90;;;;;;5088290;28;20184;-84
2023/03/06 09:37:15;;;;;;;20.30;12.70;;;9.40;99.90;;;;;;5078763;28;20197;-83
2023/03/06 09:39:41;;;;;;;22.25;15.32;;;9.30;99.90;;;;;;5084442;28;20861;-82
2023/03/06 09:42:10;;;;;;;30.33;16.63;;;9.40;99.90;;;;;;5088146;28;20299;-84
2023/03/06 09:44:39;;;;;;;17.33;12.75;;;9.60;99.90;;;;;;5089083;28;20208;-84
2023/03/06 09:47:27;;;;;;;19.10;12.60;;;9.70;99.90;;;;;;5082396;28;20291;-83
2023/03/06 09:50:19;;;;;;;20.83;14.25;;;10.00;99.90;;;;;;5087881;28;20717;-83
2023/03/06 09:53:17;;;;;;;17.27;11.90;;;10.10;99.90;;;;;;5070833;28;20219;-85
2023/03/06 09:55:46;;;;;;;22.50;12.23;;;10.10;99.90;;;;;;5077878;28;20218;-83
2023/03/06 09:58:19;;;;;;;19.30;13.77;;;10.30;99.90;;;;;;5066738;28;20235;-85
2023/03/06 10:01:03;;;;;;;17.60;12.23;;;10.20;99.90;;;;;;5068761;28;20877;-83
2023/03/06 10:03:41;;;;;;;19.40;12.98;;;10.10;99.90;;;;;;5088637;28;20244;-85
2023/03/06 10:06:21;;;;;;;16.75;11.60;;;10.00;99.90;;;;;;5088201;28;20191;-85
2023/03/06 10:08:49;;;;;;;17.45;11.45;;;9.90;99.90;;;;;;5088105;28;20204;-85
2023/03/06 10:11:40;;;;;;;16.30;12.30;;;10.00;99.90;;;;;;5090654;28;20518;-86
2023/03/06 10:14:38;;;;;;;16.27;10.77;;;10.10;99.90;;;;;;5091051;28;20236;-83
2023/03/06 10:17:05;;;;;;;17.58;11.73;;;10.10;99.90;;;;;;5081248;28;20549;-86
2023/03/06 10:19:36;;;;;;;19.10;13.23;;;10.20;99.90;;;;;;5091333;28;20196;-85
2023/03/06 10:22:11;;;;;;;18.55;12.38;;;10.40;99.90;;;;;;5089947;28;20291;-84
2023/03/06 10:24:48;;;;;;;14.20;10.70;;;10.50;99.90;;;;;;5082606;28;20227;-83
2023/03/06 10:27:18;;;;;;;16.88;12.43;;;10.80;99.90;;;;;;5078822;28;20208;-85
2023/03/06 10:30:05;;;;;;;17.02;11.77;;;11.10;99.90;;;;;;5088177;28;20193;-85
2023/03/06 10:32:43;;;;;;;17.23;11.15;;;11.30;99.90;;;;;;5088120;28;20704;-83
2023/03/06 10:35:19;;;;;;;17.00;11.93;;;11.50;99.90;;;;;;5081729;28;20188;-83
2023/03/06 10:37:46;;;;;;;15.63;11.60;;;11.80;99.90;;;;;;5086042;28;20246;-85
2023/03/06 10:40:18;;;;;;;22.57;13.77;;;11.90;99.90;;;;;;5088101;28;20765;-85
2023/03/06 10:42:43;;;;;;;18.50;12.98;;;11.90;99.90;;;;;;5091685;28;20463;-83
2023/03/06 10:45:17;;;;;;;20.43;14.03;;;11.90;99.80;;;;;;5087847;28;20177;-83
2023/03/06 10:47:43;;;;;;;19.93;13.83;;;11.90;99.90;;;;;;5088942;28;20617;-85
2023/03/06 10:50:29;;;;;;;17.23;13.60;;;11.70;99.90;;;;;;5089940;28;20511;-84
2023/03/06 10:53:04;;;;;;;18.43;12.37;;;11.80;99.90;;;;;;5096456;28;20547;-85
2023/03/06 10:55:33;;;;;;;19.15;13.23;;;11.90;99.90;;;;;;5080884;28;20499;-84
2023/03/06 10:58:18;;;;;;;21.00;12.87;;;11.90;99.90;;;;;;5089186;28;20204;-85
2023/03/06 11:00:44;;;;;;;22.03;15.83;;;12.10;99.90;;;;;;5090234;28;20429;-86
2023/03/06 11:03:22;;;;;;;19.73;14.67;;;12.20;99.90;;;;;;5090214;28;20480;-86
2023/03/06 11:06:07;;;;;;;17.50;14.13;;;12.30;99.90;;;;;;5083567;28;20436;-85
2023/03/06 11:08:34;;;;;;;22.73;16.10;;;12.40;99.90;;;;;;5082982;28;21040;-88
2023/03/06 11:11:07;;;;;;;21.42;16.40;;;12.20;99.90;;;;;;5072574;28;20807;-84
2023/03/06 11:13:39;;;;;;;20.07;14.80;;;11.90;99.90;;;;;;5078415;28;20236;-85
2023/03/06 11:16:17;;;;;;;18.97;12.40;;;11.90;99.80;;;;;;5082057;28;20962;-83
2023/03/06 11:19:04;;;;;;;20.33;13.50;;;12.00;98.00;;;;;;5081413;28;20452;-85
2023/03/06 11:21:33;;;;;;;16.33;13.20;;;12.00;97.80;;;;;;5081221;28;20431;-84
2023/03/06 11:24:11;;;;;;;18.47;13.33;;;12.20;97.20;;;;;;5084540;28;20507;-87
2023/03/06 11:26:59;;;;;;;16.73;12.80;;;12.40;97.70;;;;;;5080340;28;20428;-84
2023/03/06 11:29:41;;;;;;;18.63;14.27;;;12.60;96.90;;;;;;5085338;28;20445;-85
2023/03/06 11:32:21;;;;;;;17.80;13.40;;;12.60;96.90;;;;;;5087204;28;21069;-86
2023/03/06 11:34:52;;;;;;;20.30;12.77;;;12.60;96.80;;;;;;5082873;28;20453;-85
2023/03/06 11:37:39;;;;;;;20.10;13.63;;;12.70;96.90;;;;;;5086565;28;21237;-84
2023/03/06 11:40:19;;;;;;;14.73;11.33;;;12.70;96.90;;;;;;5079206;28;20946;-84
2023/03/06 11:42:56;;;;;;;20.63;13.67;;;12.80;97.10;;;;;;5085350;28;20617;-85
2023/03/06 11:45:42;;;;;;;15.63;10.23;;;12.90;96.60;;;;;;5108076;27;20817;-83
2023/03/06 11:48:15;;;;;;;18.37;11.80;;;12.90;95.50;;;;;;5078643;28;20968;-84
2023/03/06 11:50:47;;;;;;;16.13;13.17;;;12.90;96.20;;;;;;5080376;28;20457;-84
2023/03/06 11:53:29;;;;;;;13.43;10.57;;;12.90;95.30;;;;;;5079454;28;20473;-84
2023/03/06 11:56:24;;;;;;;13.40;10.77;;;12.80;95.80;;;;;;5079263;28;20440;-84
2023/03/06 11:59:18;;;;;;;13.50;9.37;;;12.80;95.20;;;;;;5076737;28;20481;-86
2023/03/06 12:02:05;;;;;;;19.10;13.53;;;13.00;94.60;;;;;;5078292;28;20438;-84
2023/03/06 12:04:33;;;;;;;15.30;11.50;;;13.10;94.60;;;;;;5075591;28;20472;-84
2023/03/06 12:07:27;;;;;;;15.07;11.10;;;13.10;94.30;;;;;;5072059;28;20545;-83
2023/03/06 12:10:13;;;;;;;15.50;12.10;;;13.00;95.10;;;;;;5079256;28;20480;-85
2023/03/06 12:13:10;;;;;;;16.57;11.30;;;12.90;94.90;;;;;;5076732;28;20842;-83
2023/03/06 12:16:21;;;;;;;15.93;11.77;;;12.90;94.40;;;;;;5066207;28;20885;-84
2023/03/06 12:18:47;;;;;;;17.10;12.50;;;12.90;94.90;;;;;;5028715;28;20516;-85
2023/03/06 12:21:21;;;;;;;13.10;10.57;;;13.00;94.10;;;;;;5068902;28;20440;-87
2023/03/06 12:24:30;;;;;;;11.50;9.93;;;13.00;94.60;;;;;;5080196;28;20304;-85
2023/03/06 12:27:05;;;;;;;16.50;11.80;;;13.00;94.40;;;;;;5081768;28;20980;-85
2023/03/06 12:29:48;;;;;;;18.43;11.30;;;12.80;93.70;;;;;;5084535;28;20857;-84
2023/03/06 12:32:37;;;;;;;16.43;12.20;;;12.70;94.10;;;;;;5082412;28;20449;-85
2023/03/06 12:35:30;;;;;;;17.03;12.40;;;12.60;94.00;;;;;;5084059;28;20444;-85
2023/03/06 12:38:14;;;;;;;16.33;11.37;;;12.50;94.30;;;;;;5082935;28;20458;-86
2023/03/06 12:41:31;;;;;;;20.23;11.93;;;12.60;94.80;;;;;;5087079;28;20438;-85
2023/03/06 12:44:34;;;;;;;16.60;11.87;;;12.50;94.10;;;;;;5088643;28;20559;-85
2023/03/06 12:47:09;;;;;;;15.20;10.30;;;12.50;94.20;;;;;;5085873;28;20461;-84